Time;durP1;ratioP1;P1;durP2;ratioP2;P2;SDS_P1;SDS_P2;PMS_P1;PMS_P2;Temp;Humidity;BMP_temperature;BMP_pressure;BME280_temperature;BME280_humidity;BME280_pressure;Samples;Min_cycle;Max_cycle;Signal;HPM_P1;HPM_P2
2023/01/23 00:01:08;;;;;;;5.03;4.65;;;;;;;1.07;100.00;102911.88;6059672;23;20175;-76
2023/01/23 00:03:35;;;;;;;3.83;3.47;;;;;;;0.57;100.00;102847.81;6024507;23;20101;-72
2023/01/23 00:06:05;;;;;;;4.00;3.80;;;;;;;0.42;100.00;102807.81;6054601;23;20018;-73
2023/01/23 00:08:34;;;;;;;3.30;3.10;;;;;;;1.06;100.00;102920.44;6051672;23;20029;-75
2023/01/23 00:11:07;;;;;;;5.22;3.70;;;;;;;1.05;100.00;102908.38;6057738;23;20143;-75
2023/01/23 00:13:34;;;;;;;5.20;4.70;;;;;;;1.06;100.00;102935.97;6051883;23;20035;-76
2023/01/23 00:16:09;;;;;;;4.22;4.00;;;;;;;1.04;100.00;102914.38;6056229;23;20095;-73
2023/01/23 00:18:36;;;;;;;3.63;3.42;;;;;;;0.75;100.00;102864.59;6034442;23;20093;-73
2023/01/23 00:21:08;;;;;;;4.20;4.00;;;;;;;1.06;100.00;102915.28;6055270;23;20018;-74
2023/01/23 00:23:35;;;;;;;5.22;4.85;;;;;;;0.96;100.00;102895.22;6057762;23;20103;-74
2023/01/23 00:26:14;;;;;;;5.18;3.65;;;;;;;0.96;100.00;102902.97;6030645;23;20014;-73
2023/01/23 00:28:42;;;;;;;3.70;3.38;;;;;;;0.68;100.00;102850.66;6012935;23;20520;-75
2023/01/23 00:31:12;;;;;;;3.72;3.42;;;;;;;-0.48;100.00;102657.63;6059518;23;20054;-75
2023/01/23 00:33:39;;;;;;;4.55;4.25;;;;;;;1.10;100.00;102929.16;6041516;23;20998;-74
2023/01/23 00:36:06;;;;;;;4.90;4.60;;;;;;;0.52;100.00;102821.00;6053183;23;20594;-72
2023/01/23 00:38:33;;;;;;;6.78;3.65;;;;;;;1.13;100.00;102914.59;6038988;23;20018;-72
2023/01/23 00:41:01;;;;;;;3.25;3.13;;;;;;;0.31;100.00;102786.91;6054779;23;20034;-75
2023/01/23 00:43:28;;;;;;;5.68;4.70;;;;;;;0.86;100.00;102881.19;6036204;23;20030;-75
2023/01/23 00:45:55;;;;;;;3.60;3.45;;;;;;;1.08;100.00;102913.59;6054779;23;20034;-74
2023/01/23 00:48:21;;;;;;;11.90;4.45;;;;;;;0.37;100.00;102802.53;6061849;23;20029;-75
2023/01/23 00:50:48;;;;;;;4.82;4.53;;;;;;;0.95;100.00;102911.59;6056665;23;20010;-72
2023/01/23 00:53:15;;;;;;;6.03;4.28;;;;;;;1.02;100.00;102907.41;6056575;23;20034;-73
2023/01/23 00:55:41;;;;;;;3.60;3.42;;;;;;;0.08;100.00;102752.78;6051373;23;20512;-75
2023/01/23 00:58:08;;;;;;;3.42;3.28;;;;;;;-0.40;100.00;102681.94;6028481;23;20507;-74
2023/01/23 01:00:37;;;;;;;4.82;4.38;;;;;;;1.02;100.00;102918.63;6059527;23;20026;-72
2023/01/23 01:03:04;;;;;;;3.75;3.55;;;;;;;1.03;100.00;102914.34;6035667;23;20046;-74
2023/01/23 01:05:31;;;;;;;3.42;3.30;;;;;;;0.49;100.00;102843.31;6010966;23;20019;-74
2023/01/23 01:07:58;;;;;;;4.57;3.92;;;;;;;0.98;100.00;102935.81;6057790;23;20026;-74
2023/01/23 01:10:28;;;;;;;5.30;4.18;;;;;;;0.36;100.00;102831.78;6034624;23;20362;-73
2023/01/23 01:12:56;;;;;;;3.40;3.05;;;;;;;0.99;100.00;102934.94;6032064;23;20007;-74
2023/01/23 01:15:23;;;;;;;4.60;4.30;;;;;;;1.00;100.00;102941.00;6056291;23;20026;-74
2023/01/23 01:17:49;;;;;;;3.88;3.58;;;;;;;0.17;100.00;102815.84;6054613;23;20011;-75
2023/01/23 01:20:16;;;;;;;4.88;4.57;;;;;;;0.46;100.00;102838.03;6059044;23;20030;-75
2023/01/23 01:22:42;;;;;;;4.22;3.80;;;;;;;0.79;100.00;102890.53;6062856;23;20022;-74
2023/01/23 01:25:09;;;;;;;4.22;3.67;;;;;;;1.05;100.00;102929.06;6057735;23;20022;-73
2023/01/23 01:27:35;;;;;;;3.42;3.22;;;;;;;1.04;100.00;102947.09;6039308;23;20027;-73
2023/01/23 01:30:02;;;;;;;3.60;3.40;;;;;;;1.02;100.00;102948.78;6057910;23;20588;-73
2023/01/23 01:32:29;;;;;;;4.30;4.00;;;;;;;0.79;100.00;102907.75;6045490;23;20030;-74
2023/01/23 01:34:55;;;;;;;3.75;3.55;;;;;;;0.97;100.00;102943.50;6056313;23;20010;-75
2023/01/23 01:37:24;;;;;;;3.47;3.15;;;;;;;0.82;100.00;102923.31;6060166;23;20098;-74
2023/01/23 01:39:50;;;;;;;3.13;2.90;;;;;;;0.92;100.00;102943.41;6058392;23;20019;-73
2023/01/23 01:42:16;;;;;;;4.72;4.32;;;;;;;0.44;100.00;102861.28;6055120;23;20026;-76
2023/01/23 01:45:28;;;;;;;3.97;3.55;;;;;;;0.92;100.00;102935.66;6031161;23;20030;-73
2023/01/23 01:47:54;;;;;;;5.28;4.07;;;;;;;0.51;100.00;102883.81;6012790;23;20042;-78
2023/01/23 01:50:21;;;;;;;3.95;3.65;;;;;;;0.91;100.00;102945.97;6068169;23;20014;-75
2023/01/23 01:52:47;;;;;;;4.68;4.28;;;;;;;0.91;100.00;102946.81;6052771;23;20390;-74
2023/01/23 01:55:14;;;;;;;3.78;3.58;;;;;;;0.49;100.00;102879.47;6053579;23;20462;-73
2023/01/23 01:57:44;;;;;;;4.20;4.00;;;;;;;0.49;100.00;102888.09;6059665;23;20025;-75
2023/01/23 02:00:16;;;;;;;3.00;2.90;;;;;;;0.76;100.00;102931.84;6058393;23;20677;-74
2023/01/23 02:02:45;;;;;;;5.75;3.42;;;;;;;0.60;100.00;102906.41;6050269;23;20375;-74
2023/01/23 02:05:17;;;;;;;3.88;3.65;;;;;;;0.89;100.00;102965.72;6034283;23;20321;-74
2023/01/23 02:07:55;;;;;;;5.63;5.15;;;;;;;0.89;100.00;102968.31;6056211;23;20461;-74
2023/01/23 02:10:22;;;;;;;6.13;3.78;;;;;;;0.73;100.00;102942.06;6052374;23;20025;-72
2023/01/23 02:12:52;;;;;;;4.35;4.05;;;;;;;0.59;100.00;102927.94;6033741;23;20018;-74
2023/01/23 02:15:21;;;;;;;3.33;3.13;;;;;;;0.66;100.00;102934.13;6034840;23;20506;-73
2023/01/23 02:17:50;;;;;;;4.15;3.80;;;;;;;0.91;100.00;102969.22;6060135;23;20035;-74
2023/01/23 02:20:22;;;;;;;3.65;3.45;;;;;;;0.92;100.00;102965.78;6036626;23;20030;-75
2023/01/23 02:22:54;;;;;;;3.55;3.35;;;;;;;0.87;100.00;102957.94;6060445;23;20926;-75
2023/01/23 02:25:37;;;;;;;5.85;5.38;;;;;;;0.91;100.00;102958.88;6027519;23;20092;-73
2023/01/23 02:28:03;;;;;;;;;;;;;;;0.92;100.00;102958.94;6052956;23;20086;-75
2023/01/23 02:30:30;;;;;;;4.05;3.85;;;;;;;0.14;100.00;102841.59;6037974;23;19980;-76
2023/01/23 02:33:18;;;;;;;4.53;4.25;;;;;;;0.27;100.00;102863.44;6039050;23;20043;-75
2023/01/23 02:35:45;;;;;;;5.30;4.47;;;;;;;0.27;100.00;102862.56;6049535;23;20238;-75
2023/01/23 02:38:11;;;;;;;3.75;3.55;;;;;;;0.99;100.00;102972.88;6058696;23;20050;-75
2023/01/23 02:40:40;;;;;;;3.63;3.40;;;;;;;0.98;100.00;102986.63;6058355;23;20046;-73
2023/01/23 02:43:14;;;;;;;4.70;4.40;;;;;;;0.94;100.00;102961.53;6007224;23;20031;-74
2023/01/23 02:45:40;;;;;;;4.80;4.40;;;;;;;-0.39;100.00;102766.22;6030035;23;20040;-73
2023/01/23 02:48:07;;;;;;;7.28;4.95;;;;;;;0.90;100.00;102959.69;6060903;23;20037;-73
2023/01/23 02:50:34;;;;;;;5.57;3.50;;;;;;;0.88;100.00;102957.09;6033698;23;20024;-73
2023/01/23 02:53:00;;;;;;;3.97;3.70;;;;;;;0.16;100.00;102831.28;6063133;23;20035;-73
2023/01/23 02:55:29;;;;;;;8.07;4.65;;;;;;;0.81;100.00;102939.69;6056216;23;20014;-73
2023/01/23 03:00:14;;;;;;;4.15;3.85;;;;;;;0.62;100.00;102916.81;6057893;23;20511;-76
2023/01/23 03:00:48;;;;;;;4.80;4.38;;;;;;;0.75;100.00;102958.50;6055306;23;20043;-73
2023/01/23 03:03:14;;;;;;;4.75;3.47;;;;;;;0.01;100.00;102851.56;6057172;23;20030;-73
2023/01/23 03:05:41;;;;;;;4.40;4.10;;;;;;;0.35;100.00;102918.72;6018174;23;20022;-74
2023/01/23 03:08:07;;;;;;;4.13;3.92;;;;;;;0.50;100.00;102940.63;6061755;23;20137;-73
2023/01/23 03:10:34;;;;;;;6.57;3.63;;;;;;;0.43;100.00;102943.91;6063355;23;20022;-75
2023/01/23 03:13:06;;;;;;;4.18;3.65;;;;;;;-0.27;100.00;102848.22;6067533;23;20015;-74
2023/01/23 03:15:33;;;;;;;4.00;3.63;;;;;;;0.24;100.00;102937.34;6058143;23;20030;-75
2023/01/23 03:18:00;;;;;;;3.90;3.60;;;;;;;0.23;100.00;102945.94;6065504;23;20021;-75
2023/01/23 03:20:27;;;;;;;2.80;2.70;;;;;;;-0.02;100.00;102919.44;6059924;23;20038;-74
2023/01/23 03:22:53;;;;;;;2.58;2.47;;;;;;;-1.23;100.00;102726.06;6033637;23;20027;-74
2023/01/23 03:25:21;;;;;;;4.60;4.30;;;;;;;-0.03;100.00;102957.28;6057751;23;20683;-76
2023/01/23 03:27:47;;;;;;;3.78;3.47;;;;;;;-0.11;100.00;102938.13;6060513;23;20097;-74
2023/01/23 03:30:15;;;;;;;3.65;3.45;;;;;;;-0.87;100.00;102834.50;6065110;23;20057;-74
2023/01/23 03:32:43;;;;;;;4.97;4.53;;;;;;;-1.29;100.00;102749.94;6055788;23;20589;-73
2023/01/23 03:35:15;;;;;;;3.67;3.35;;;;;;;-0.34;100.00;102934.91;6064268;23;20030;-73
2023/01/23 03:37:42;;;;;;;3.20;3.05;;;;;;;-1.02;100.00;102859.84;6063530;23;20122;-74
2023/01/23 03:43:03;;;;;;;5.18;3.55;;;;;;;-0.38;100.00;102942.50;6040983;23;20223;-74
2023/01/23 03:45:30;;;;;;;7.65;3.95;;;;;;;-0.29;100.00;102941.06;6041925;23;20085;-74
2023/01/23 03:47:57;;;;;;;3.25;3.15;;;;;;;-0.38;100.00;102924.44;6055574;23;20036;-75
2023/01/23 03:50:23;;;;;;;4.10;3.83;;;;;;;-0.58;100.00;102909.28;6033114;23;20008;-74
2023/01/23 03:52:50;;;;;;;3.65;3.35;;;;;;;-0.46;100.00;102940.59;6056258;23;20034;-73
2023/01/23 03:55:16;;;;;;;12.63;5.25;;;;;;;-0.79;100.00;102877.69;6055017;23;20034;-74
2023/01/23 03:57:43;;;;;;;10.20;4.93;;;;;;;-0.96;100.00;102828.19;6057864;23;20102;-75
2023/01/23 04:00:12;;;;;;;4.95;4.55;;;;;;;-0.75;100.00;102833.13;6051845;23;20085;-74
2023/01/23 04:02:40;;;;;;;3.72;3.53;;;;;;;-0.46;100.00;102870.94;6028229;23;20022;-73
2023/01/23 04:05:06;;;;;;;3.83;3.63;;;;;;;0.03;100.00;102935.09;6034438;23;20030;-75
2023/01/23 04:07:33;;;;;;;3.88;3.65;;;;;;;-0.01;100.00;102909.16;6033772;23;20034;-74
2023/01/23 04:09:59;;;;;;;4.85;4.28;;;;;;;0.23;100.00;102938.19;6055812;23;20031;-74
2023/01/23 04:12:26;;;;;;;4.35;4.05;;;;;;;0.28;100.00;102942.66;6063734;23;20106;-73
2023/01/23 04:14:52;;;;;;;5.60;4.70;;;;;;;0.28;100.00;102937.50;6051406;23;20010;-75
2023/01/23 04:17:19;;;;;;;4.03;3.83;;;;;;;0.31;100.00;102939.28;6067429;23;20085;-75
2023/01/23 04:19:45;;;;;;;3.67;3.50;;;;;;;0.32;100.00;102934.16;6059567;23;20030;-76
2023/01/23 04:22:11;;;;;;;2.58;2.47;;;;;;;-0.49;100.00;102808.06;6035721;23;20165;-74
2023/01/23 04:24:38;;;;;;;5.18;3.13;;;;;;;-0.12;100.00;102855.50;6033879;23;20029;-73
2023/01/23 04:27:05;;;;;;;3.78;3.33;;;;;;;-0.18;100.00;102838.19;6061590;23;20089;-73
2023/01/23 04:29:32;;;;;;;3.45;3.25;;;;;;;0.36;100.00;102948.91;6035400;23;20132;-74
2023/01/23 04:31:58;;;;;;;4.40;4.07;;;;;;;0.38;100.00;102928.25;6060678;23;20460;-75
2023/01/23 04:34:24;;;;;;;4.10;3.65;;;;;;;0.37;100.00;102923.94;6037097;23;20068;-74
2023/01/23 04:36:51;;;;;;;3.25;3.00;;;;;;;-0.02;100.00;102860.97;6031453;23;20200;-74
2023/01/23 04:39:28;;;;;;;4.80;4.40;;;;;;;0.22;100.00;102882.22;6046568;23;20013;-72
2023/01/23 04:41:54;;;;;;;5.07;3.80;;;;;;;0.43;100.00;102910.31;6055054;23;20560;-75
2023/01/23 04:44:21;;;;;;;4.97;4.53;;;;;;;-0.14;100.00;102833.94;6059746;23;20022;-73
2023/01/23 04:46:51;;;;;;;4.38;3.97;;;;;;;0.25;100.00;102890.91;6055666;23;20019;-72
2023/01/23 04:49:19;;;;;;;4.03;3.72;;;;;;;0.18;100.00;102883.84;6061313;23;20289;-73
2023/01/23 04:51:47;;;;;;;3.20;3.00;;;;;;;0.33;100.00;102917.81;6054107;23;20034;-74
2023/01/23 04:54:13;;;;;;;4.80;3.88;;;;;;;0.09;100.00;102896.53;6040064;23;20034;-73
2023/01/23 04:56:40;;;;;;;3.05;2.92;;;;;;;-0.42;100.00;102816.03;6040130;23;20062;-73
2023/01/23 04:59:06;;;;;;;3.20;3.05;;;;;;;-0.15;100.00;102879.53;6057434;23;20072;-74
2023/01/23 05:01:33;;;;;;;3.33;3.10;;;;;;;0.17;100.00;102932.03;6057454;23;20018;-75
2023/01/23 05:03:59;;;;;;;5.93;3.75;;;;;;;-0.20;100.00;102870.81;6059717;23;20025;-74
2023/01/23 05:06:25;;;;;;;4.10;3.90;;;;;;;-0.48;100.00;102831.34;6051707;23;20084;-74
2023/01/23 05:08:52;;;;;;;3.88;3.58;;;;;;;-0.32;100.00;102888.50;6060963;23;20025;-73
2023/01/23 05:11:18;;;;;;;4.00;3.70;;;;;;;-0.36;100.00;102889.25;6056081;23;20097;-72
2023/01/23 05:13:45;;;;;;;3.28;3.08;;;;;;;-0.34;100.00;102888.47;6073455;23;20021;-72
2023/01/23 05:16:11;;;;;;;3.45;3.20;;;;;;;-0.13;100.00;102924.31;6054061;23;20026;-76
2023/01/23 05:18:38;;;;;;;3.58;3.28;;;;;;;-0.19;100.00;102902.63;6038745;23;20030;-74
2023/01/23 05:21:05;;;;;;;4.65;4.25;;;;;;;-0.11;100.00;102921.78;6065405;23;20022;-73
2023/01/23 05:23:31;;;;;;;4.50;4.25;;;;;;;-0.56;100.00;102861.19;6053427;23;20046;-74
2023/01/23 05:25:58;;;;;;;3.80;3.60;;;;;;;-0.24;100.00;102929.19;6061159;23;20084;-73
2023/01/23 05:28:24;;;;;;;3.50;3.30;;;;;;;-0.58;100.00;102869.69;6057435;23;20019;-74
2023/01/23 05:30:50;;;;;;;5.85;4.05;;;;;;;-0.16;100.00;102946.56;6057917;23;20073;-73
2023/01/23 05:33:19;;;;;;;4.15;3.85;;;;;;;-0.16;100.00;102944.91;6055606;23;20021;-72
2023/01/23 05:35:45;;;;;;;4.13;3.70;;;;;;;-0.11;100.00;102960.50;6056830;23;20038;-73
2023/01/23 05:38:12;;;;;;;6.65;6.15;;;;;;;-1.56;100.00;102695.03;6059992;23;20022;-75
2023/01/23 05:40:39;;;;;;;3.00;2.80;;;;;;;-0.02;100.00;102940.09;6060301;23;20043;-72
2023/01/23 05:43:05;;;;;;;3.63;3.47;;;;;;;0.01;100.00;102944.50;6053650;23;20042;-72
2023/01/23 05:45:33;;;;;;;3.83;3.28;;;;;;;-0.28;100.00;102900.66;6037305;23;20025;-74
2023/01/23 05:48:02;;;;;;;3.92;3.35;;;;;;;-0.32;100.00;102888.50;6062452;23;20085;-72
2023/01/23 05:50:28;;;;;;;4.35;3.95;;;;;;;-0.28;100.00;102885.16;6034176;23;20022;-73
2023/01/23 05:52:55;;;;;;;4.40;3.83;;;;;;;-0.25;100.00;102903.34;6063335;23;20033;-73
2023/01/23 05:55:21;;;;;;;7.25;3.78;;;;;;;-0.24;100.00;102955.00;6056826;23;20441;-73
2023/01/23 05:57:48;;;;;;;3.45;3.25;;;;;;;-0.47;100.00;102894.97;6033529;23;20108;-73
2023/01/23 06:00:15;;;;;;;3.90;3.70;;;;;;;-0.16;100.00;102986.19;6060851;23;20042;-72
2023/01/23 06:02:42;;;;;;;3.28;3.08;;;;;;;-0.85;100.00;102857.75;6029505;23;20018;-73
2023/01/23 06:05:08;;;;;;;5.72;4.75;;;;;;;-0.23;100.00;102955.84;6035615;23;20531;-76
2023/01/23 06:07:36;;;;;;;4.93;3.78;;;;;;;-0.30;100.00;102941.03;6059597;23;20132;-73
2023/01/23 06:10:06;;;;;;;3.28;3.08;;;;;;;-0.16;100.00;102962.06;6061589;23;20019;-75
2023/01/23 06:12:35;;;;;;;4.47;4.15;;;;;;;-0.74;100.00;102858.97;6013710;23;20038;-75
2023/01/23 06:15:03;;;;;;;3.85;3.55;;;;;;;-0.02;100.00;102963.31;6054483;23;20087;-75
2023/01/23 06:17:29;;;;;;;4.43;4.13;;;;;;;-0.99;100.00;102792.91;6031543;23;20022;-73
2023/01/23 06:19:57;;;;;;;3.80;3.50;;;;;;;-0.01;100.00;102963.38;6055818;23;20603;-73
2023/01/23 06:22:23;;;;;;;4.63;3.72;;;;;;;0.01;100.00;102968.59;6045591;23;20034;-74
2023/01/23 06:24:51;;;;;;;3.45;3.28;;;;;;;-0.12;100.00;102967.38;6054446;23;21306;-75
2023/01/23 06:27:18;;;;;;;2.92;2.78;;;;;;;-0.26;100.00;102959.22;6057800;23;20060;-73
2023/01/23 06:29:44;;;;;;;3.65;3.45;;;;;;;-0.45;100.00;102937.16;6051908;23;20646;-74
2023/01/23 06:32:11;;;;;;;2.78;2.60;;;;;;;-1.03;100.00;102863.22;6060243;23;20532;-72
2023/01/23 06:34:37;;;;;;;3.78;3.58;;;;;;;-0.61;100.00;102920.34;6057712;23;20150;-73
2023/01/23 06:37:05;;;;;;;3.45;3.25;;;;;;;-0.21;100.00;102987.75;6060687;23;20022;-74
2023/01/23 06:39:33;;;;;;;3.53;3.35;;;;;;;-0.50;100.00;102956.81;6039253;23;20091;-76
2023/01/23 06:41:59;;;;;;;3.50;2.75;;;;;;;-0.24;100.00;102998.84;6054995;23;20003;-73
2023/01/23 06:44:26;;;;;;;3.85;3.55;;;;;;;-0.51;100.00;102978.25;6047756;23;20676;-72
2023/01/23 06:46:52;;;;;;;3.40;3.22;;;;;;;-0.42;100.00;103006.91;6074315;23;20028;-76
2023/01/23 06:49:19;;;;;;;3.03;2.83;;;;;;;-0.45;100.00;103011.97;6042921;23;20030;-74
2023/01/23 06:51:45;;;;;;;3.60;3.40;;;;;;;-1.17;100.00;102903.16;6041009;23;20035;-75
2023/01/23 06:54:12;;;;;;;4.30;4.00;;;;;;;-0.83;100.00;102991.00;6068260;23;20047;-74
2023/01/23 06:56:38;;;;;;;4.70;3.05;;;;;;;-0.93;100.00;102973.50;6070881;23;20010;-72
2023/01/23 06:59:05;;;;;;;3.15;2.95;;;;;;;-0.66;100.00;103022.50;6071895;23;20014;-73
2023/01/23 07:01:31;;;;;;;6.05;3.92;;;;;;;-0.60;100.00;103024.41;6043513;23;20043;-76
2023/01/23 07:03:58;;;;;;;2.83;2.70;;;;;;;-1.02;100.00;102932.88;6063399;23;20038;-75
2023/01/23 07:06:25;;;;;;;6.28;3.30;;;;;;;-0.87;100.00;102955.66;6064918;23;20641;-73
2023/01/23 07:08:54;;;;;;;3.10;2.95;;;;;;;-0.36;100.00;103024.28;6073615;23;20026;-75
2023/01/23 07:11:21;;;;;;;3.08;2.88;;;;;;;-0.30;100.00;103033.91;6068360;23;20049;-73
2023/01/23 07:13:47;;;;;;;3.25;3.13;;;;;;;-0.21;100.00;103031.59;6033961;23;20038;-76
2023/01/23 07:16:14;;;;;;;5.32;4.22;;;;;;;-0.12;100.00;103036.16;6046507;23;20030;-75
2023/01/23 07:18:40;;;;;;;4.30;3.90;;;;;;;-0.48;100.00;102970.63;6063979;23;20194;-76
2023/01/23 07:21:09;;;;;;;4.30;4.03;;;;;;;-0.02;100.00;103051.09;6040995;23;20094;-74
2023/01/23 07:23:36;;;;;;;3.72;3.22;;;;;;;-0.18;100.00;103016.22;6044643;23;20038;-73
2023/01/23 07:26:08;;;;;;;4.43;4.05;;;;;;;0.07;100.00;103047.91;6066028;23;20017;-74
2023/01/23 07:28:38;;;;;;;3.95;3.65;;;;;;;0.11;100.00;103060.09;6046701;23;20104;-73
2023/01/23 07:31:06;;;;;;;4.47;4.13;;;;;;;0.17;100.00;103053.38;6044358;23;20022;-74
2023/01/23 07:33:34;;;;;;;4.10;3.63;;;;;;;0.13;100.00;103041.22;6067225;23;20026;-74
2023/01/23 07:36:07;;;;;;;2.63;2.53;;;;;;;0.25;100.00;103056.19;6063782;23;20277;-73
2023/01/23 07:38:34;;;;;;;;;;;;;;;0.33;100.00;103054.69;6066623;23;20034;-72
2023/01/23 07:41:00;;;;;;;3.78;3.50;;;;;;;0.15;100.00;103018.91;6071828;23;19909;-72
2023/01/23 07:43:27;;;;;;;4.25;3.63;;;;;;;0.45;100.00;103064.50;6078198;23;20163;-74
2023/01/23 07:45:53;;;;;;;3.80;3.60;;;;;;;0.48;100.00;103067.19;6078563;23;20011;-74
2023/01/23 07:48:38;;;;;;;3.92;3.72;;;;;;;0.15;100.00;103012.88;6052030;23;20732;-71
2023/01/23 07:51:07;;;;;;;4.43;4.10;;;;;;;0.48;100.00;103077.53;6058783;23;20504;-74
2023/01/23 07:53:42;;;;;;;3.95;3.58;;;;;;;0.49;100.00;103075.81;6036891;23;20046;-73
2023/01/23 07:56:08;;;;;;;7.78;4.78;;;;;;;0.48;100.00;103080.09;6062629;23;20034;-72
2023/01/23 07:58:50;;;;;;;3.40;3.25;;;;;;;0.48;100.00;103082.69;6059800;23;20446;-73
2023/01/23 08:01:18;;;;;;;2.95;2.75;;;;;;;0.50;100.00;103096.53;6008637;23;20049;-72
2023/01/23 08:03:54;;;;;;;4.97;4.53;;;;;;;0.38;100.00;103070.31;6035152;23;20390;-73
2023/01/23 08:06:21;;;;;;;5.47;4.18;;;;;;;0.52;100.00;103087.09;6054706;23;20030;-71
2023/01/23 08:08:50;;;;;;;3.58;3.33;;;;;;;0.07;100.00;103014.34;6029999;23;20058;-73
2023/01/23 08:11:16;;;;;;;9.20;4.43;;;;;;;0.17;100.00;103021.53;6060960;23;20022;-77
2023/01/23 08:13:47;;;;;;;4.55;4.28;;;;;;;0.55;100.00;103070.81;6059527;23;20424;-72
2023/01/23 08:16:13;;;;;;;4.05;3.65;;;;;;;0.36;100.00;103039.31;6057353;23;20037;-73
2023/01/23 08:18:40;;;;;;;5.20;4.72;;;;;;;0.64;100.00;103086.53;6062425;23;20037;-73
2023/01/23 08:21:09;;;;;;;5.30;5.00;;;;;;;0.65;100.00;103077.97;6069635;23;20030;-74
2023/01/23 08:23:35;;;;;;;4.28;3.92;;;;;;;0.68;100.00;103077.16;6041293;23;20544;-73
2023/01/23 08:26:04;;;;;;;4.53;4.15;;;;;;;0.69;100.00;103079.81;6037001;23;20026;-72
2023/01/23 08:28:31;;;;;;;5.47;5.07;;;;;;;0.72;100.00;103082.50;6030863;23;20024;-73
2023/01/23 08:31:08;;;;;;;4.32;4.13;;;;;;;0.79;100.00;103084.38;6056826;23;20018;-73
2023/01/23 08:33:38;;;;;;;4.85;4.53;;;;;;;0.42;100.00;103005.00;6052334;23;20469;-73
2023/01/23 08:36:11;;;;;;;7.57;4.20;;;;;;;0.87;100.00;103078.56;6059253;23;20026;-74
2023/01/23 08:38:38;;;;;;;4.40;4.00;;;;;;;0.39;100.00;102995.47;6051667;23;20041;-74
2023/01/23 08:41:10;;;;;;;3.53;3.25;;;;;;;0.97;100.00;103070.19;6048494;23;20089;-73
2023/01/23 08:43:37;;;;;;;;;;;;;;;1.04;100.00;103077.25;6030938;23;20018;-71
2023/01/23 08:46:04;;;;;;;5.78;4.97;;;;;;;1.07;100.00;103117.88;6057165;23;19940;-74
2023/01/23 08:48:32;;;;;;;3.83;3.63;;;;;;;0.57;100.00;102997.66;6054059;23;20101;-75
2023/01/23 08:51:01;;;;;;;4.25;3.97;;;;;;;1.16;100.00;103089.63;6049188;23;20022;-73
2023/01/23 08:53:29;;;;;;;4.85;4.47;;;;;;;1.19;100.00;103094.91;6057753;23;20026;-72
2023/01/23 08:56:04;;;;;;;4.43;4.13;;;;;;;1.21;100.00;103094.94;6041431;23;20471;-73
2023/01/23 08:58:31;;;;;;;5.57;5.05;;;;;;;1.22;100.00;103101.84;6030313;23;20029;-72
2023/01/23 09:01:01;;;;;;;3.20;3.00;;;;;;;1.26;100.00;103103.69;6058674;23;20022;-72
2023/01/23 09:03:30;;;;;;;5.13;4.50;;;;;;;1.01;100.00;103059.09;6031015;23;20022;-73
2023/01/23 09:06:00;;;;;;;4.13;3.85;;;;;;;0.69;100.00;103010.03;6055186;23;20129;-71
2023/01/23 09:08:29;;;;;;;4.07;3.88;;;;;;;0.82;100.00;103008.63;6052839;23;20466;-73
2023/01/23 09:11:09;;;;;;;5.13;4.63;;;;;;;1.32;100.00;103096.97;6059326;23;20073;-74
2023/01/23 09:13:38;;;;;;;3.80;3.47;;;;;;;1.48;100.00;103105.94;6056196;23;20175;-71
2023/01/23 09:16:07;;;;;;;4.28;4.05;;;;;;;1.50;100.00;103106.88;6058840;23;20033;-74
2023/01/23 09:18:39;;;;;;;5.25;4.70;;;;;;;1.32;100.00;103088.31;6034011;23;20059;-73
2023/01/23 09:21:11;;;;;;;3.75;3.53;;;;;;;1.56;100.00;103113.91;6030257;23;20030;-72
2023/01/23 09:23:38;;;;;;;3.97;3.60;;;;;;;1.44;100.00;103095.50;6055938;23;20053;-75
2023/01/23 09:26:34;;;;;;;5.90;5.03;;;;;;;1.60;100.00;103120.91;6059638;23;20101;-72
2023/01/23 09:29:03;;;;;;;8.25;3.90;;;;;;;0.96;100.00;103017.63;6051193;23;20077;-72
2023/01/23 09:31:30;;;;;;;7.10;4.40;;;;;;;1.30;100.00;103062.41;6055131;23;20105;-72
2023/01/23 09:33:57;;;;;;;5.65;5.22;;;;;;;1.74;100.00;103134.19;6016368;23;20085;-72
2023/01/23 09:36:23;;;;;;;6.07;4.75;;;;;;;1.37;100.00;103072.06;6056858;23;20026;-71
2023/01/23 09:39:07;;;;;;;4.72;4.30;;;;;;;1.65;100.00;103124.50;6035985;23;20030;-73
2023/01/23 09:41:34;;;;;;;6.28;4.32;;;;;;;1.80;100.00;103157.63;6052456;23;20035;-72
2023/01/23 09:44:08;;;;;;;6.65;5.32;;;;;;;1.77;100.00;103142.91;6051158;23;20296;-72
2023/01/23 09:46:46;;;;;;;5.00;4.60;;;;;;;1.78;100.00;103143.75;6055140;23;20026;-73
2023/01/23 09:49:25;;;;;;;5.35;4.90;;;;;;;1.79;100.00;103142.94;6038734;23;20019;-72
2023/01/23 09:51:59;;;;;;;6.20;5.70;;;;;;;1.84;100.00;103156.84;6029731;23;20030;-72
2023/01/23 09:54:39;;;;;;;12.40;6.70;;;;;;;1.86;100.00;103160.34;6058425;23;20227;-72
2023/01/23 09:57:24;;;;;;;4.40;4.00;;;;;;;1.46;100.00;103097.28;6050775;23;20029;-72
2023/01/23 10:00:06;;;;;;;8.35;3.85;;;;;;;1.91;100.00;103160.50;6047780;23;20038;-71
2023/01/23 10:02:33;;;;;;;4.60;4.22;;;;;;;1.89;100.00;103162.16;6050218;23;20056;-71
2023/01/23 10:05:01;;;;;;;8.27;6.40;;;;;;;1.92;100.00;103172.56;6043549;23;20030;-72
2023/01/23 10:07:31;;;;;;;4.82;4.53;;;;;;;1.91;100.00;103165.66;6004238;23;20022;-72
2023/01/23 10:10:27;;;;;;;6.63;5.95;;;;;;;1.87;100.00;103156.06;6027690;23;20021;-71
2023/01/23 10:13:14;;;;;;;6.45;4.78;;;;;;;1.98;100.00;103170.13;6032805;23;20030;-71
2023/01/23 10:16:09;;;;;;;4.13;3.90;;;;;;;1.96;100.00;103167.50;6054321;23;20566;-71
2023/01/23 10:19:09;;;;;;;5.88;5.05;;;;;;;2.07;100.00;103170.34;6050599;23;20026;-72
2023/01/23 10:21:45;;;;;;;5.32;4.60;;;;;;;2.07;100.00;103172.94;6054596;23;20026;-71
2023/01/23 10:24:41;;;;;;;3.58;3.38;;;;;;;2.07;100.00;103165.19;6054193;23;20500;-72
2023/01/23 10:27:42;;;;;;;3.63;3.38;;;;;;;2.05;100.00;103177.22;6052821;23;20278;-71
2023/01/23 10:30:33;;;;;;;4.32;4.00;;;;;;;2.06;100.00;103166.00;6049945;23;20014;-71
2023/01/23 10:33:09;;;;;;;8.60;5.05;;;;;;;2.01;100.00;103172.81;6047546;23;20276;-75
2023/01/23 10:35:49;;;;;;;6.30;5.60;;;;;;;1.92;100.00;103181.22;6052470;23;20034;-73
2023/01/23 10:38:33;;;;;;;5.55;4.22;;;;;;;1.46;100.00;103073.13;6053588;23;20090;-72
2023/01/23 10:41:12;;;;;;;5.65;4.43;;;;;;;1.74;100.00;103129.00;6053689;23;20033;-73
2023/01/23 10:43:44;;;;;;;4.85;4.57;;;;;;;1.88;100.00;103157.81;6048951;23;20054;-71
2023/01/23 10:46:13;;;;;;;5.50;5.13;;;;;;;2.10;100.00;103182.50;6052601;23;20035;-73
2023/01/23 10:48:44;;;;;;;6.32;5.18;;;;;;;2.10;100.00;103180.78;6054273;23;20026;-73
2023/01/23 10:51:26;;;;;;;4.60;4.20;;;;;;;2.11;100.00;103184.25;6053116;23;20100;-71
2023/01/23 10:54:26;;;;;;;7.22;5.35;;;;;;;1.86;100.00;103149.13;6049607;23;20010;-73
2023/01/23 10:57:01;;;;;;;5.13;4.72;;;;;;;1.91;100.00;103147.53;6053585;23;20018;-73
2023/01/23 10:59:39;;;;;;;4.05;3.85;;;;;;;2.17;100.00;103192.16;6045393;23;20027;-73
2023/01/23 11:02:11;;;;;;;14.98;13.77;;;;;;;2.22;100.00;103213.84;6013897;23;20387;-73
2023/01/23 11:04:40;;;;;;;4.70;4.38;;;;;;;2.26;100.00;103194.09;6050523;23;20026;-71
2023/01/23 11:07:22;;;;;;;7.40;5.07;;;;;;;2.21;100.00;103177.56;6054216;23;20260;-71
2023/01/23 11:10:08;;;;;;;4.15;3.88;;;;;;;2.26;100.00;103171.63;6051570;23;20342;-72
2023/01/23 11:12:47;;;;;;;5.68;4.43;;;;;;;2.30;100.00;103183.81;6049524;23;20023;-73
2023/01/23 11:15:27;;;;;;;4.63;4.32;;;;;;;2.36;100.00;103168.41;6032104;23;20078;-72
2023/01/23 11:17:56;;;;;;;7.53;6.53;;;;;;;2.40;100.00;103169.34;6053879;23;20096;-73
2023/01/23 11:20:36;;;;;;;3.85;3.55;;;;;;;0.82;100.00;102899.19;6024200;23;20030;-73
2023/01/23 11:23:12;;;;;;;4.95;4.65;;;;;;;2.39;100.00;103173.66;6052227;23;20094;-73
2023/01/23 11:25:49;;;;;;;5.00;4.47;;;;;;;2.39;100.00;103165.88;6051072;23;20034;-71
2023/01/23 11:28:32;;;;;;;7.28;5.00;;;;;;;2.43;100.00;103159.06;6060935;23;20010;-73
2023/01/23 11:31:11;;;;;;;4.80;4.32;;;;;;;2.46;100.00;103159.09;6031221;23;20083;-72
2023/01/23 11:33:51;;;;;;;5.23;4.83;;;;;;;2.55;100.00;103156.72;6060034;23;20026;-73
2023/01/23 11:36:18;;;;;;;4.13;3.85;;;;;;;2.57;100.00;103149.84;6053033;23;20713;-71
2023/01/23 11:38:54;;;;;;;4.40;4.05;;;;;;;2.55;100.00;103148.94;6058732;23;20492;-72
2023/01/23 11:41:27;;;;;;;9.32;6.40;;;;;;;2.21;100.00;103085.19;6033420;23;20657;-71